Time;durP1;ratioP1;P1;durP2;ratioP2;P2;SDS_P1;SDS_P2;PMS_P1;PMS_P2;Temp;Humidity;BMP_temperature;BMP_pressure;BME280_temperature;BME280_humidity;BME280_pressure;Samples;Min_cycle;Max_cycle;Signal;HPM_P1;HPM_P2
2023/12/04 00:00:34;;;;;;;;;;;;;;;;;;5043842;28;1196;-71
2023/12/04 00:02:59;;;;;;;;;;;;;;;;;;5043935;28;1191;-71
2023/12/04 00:05:25;;;;;;;;;;;;;;;;;;5043617;28;1890;-67
2023/12/04 00:07:50;;;;;;;;;;;;;;;;;;5047422;28;1184;-71
2023/12/04 00:10:15;;;;;;;;;;;;;;;;;;5047030;28;1206;-67
2023/12/04 00:12:41;;;;;;;;;;;;;;;;;;5047291;28;1420;-70
2023/12/04 00:15:06;;;;;;;;;;;;;;;;;;5047256;28;1128;-71
2023/12/04 00:17:32;;;;;;;;;;;;;;;;;;5047139;28;1214;-72
2023/12/04 00:19:57;;;;;;;;;;;;;;;;;;5046622;28;1181;-71
2023/12/04 00:22:23;;;;;;;;;;;;;;;;;;5047183;28;1243;-73
2023/12/04 00:24:49;;;;;;;;;;;;;;;;;;5047431;28;1941;-72
2023/12/04 00:27:14;;;;;;;;;;;;;;;;;;5047538;28;1160;-71
2023/12/04 00:29:39;;;;;;;;;;;;;;;;;;5047185;28;1302;-72
2023/12/04 00:32:04;;;;;;;;;;;;;;;;;;5046825;28;1191;-72
2023/12/04 00:34:29;;;;;;;;;;;;;;;;;;5046843;28;1081;-71
2023/12/04 00:36:54;;;;;;;;;;;;;;;;;;5046703;28;1033;-71
2023/12/04 00:39:20;;;;;;;;;;;;;;;;;;5046684;28;1286;-71
2023/12/04 00:41:45;;;;;;;;;;;;;;;;;;5046430;28;1252;-70
2023/12/04 00:44:10;;;;;;;;;;;;;;;;;;5043184;28;1939;-71
2023/12/04 00:46:36;;;;;;;;;;;;;;;;;;5043305;28;1282;-74
2023/12/04 00:49:01;;;;;;;;;;;;;;;;;;5043345;28;1168;-70
2023/12/04 00:51:26;;;;;;;;;;;;;;;;;;5043358;28;1028;-73
2023/12/04 00:53:51;;;;;;;;;;;;;;;;;;5043167;28;1235;-69
2023/12/04 00:56:18;;;;;;;;;;;;;;;;;;5043349;28;1543;-72
2023/12/04 00:58:43;;;;;;;;;;;;;;;;;;5043123;28;1310;-72
2023/12/04 01:01:09;;;;;;;;;;;;;;;;;;5043068;28;1219;-71
2023/12/04 01:03:34;;;;;;;;;;;;;;;;;;5043202;28;1288;-71
2023/12/04 01:05:59;;;;;;;;;;;;;;;;;;5043067;28;1890;-69
2023/12/04 01:08:24;;;;;;;;;;;;;;;;;;5042705;28;1101;-66
2023/12/04 01:10:50;;;;;;;;;;;;;;;;;;5043331;28;1086;-72
2023/12/04 01:13:15;;;;;;;;;;;;;;;;;;5214882;23;3737;-67
2023/12/04 01:15:40;;;;;;;;;;;;;;;;;;5003458;28;1265;-68
2023/12/04 01:18:06;;;;;;;;;;;;;;;;;;5002465;28;1549;-68
2023/12/04 01:20:33;;;;;;;;;;;;;;;;;;5002877;28;1293;-68
2023/12/04 01:22:58;;;;;;;;;;;;;;;;;;5003254;28;1232;-68
2023/12/04 01:25:24;;;;;;;;;;;;;;;;;;5003873;28;1961;-68
2023/12/04 01:27:49;;;;;;;;;;;;;;;;;;5003462;28;1458;-67
2023/12/04 01:30:14;;;;;;;;;;;;;;;;;;5003160;28;1233;-68
2023/12/04 01:32:40;;;;;;;;;;;;;;;;;;5003040;28;1207;-68
2023/12/04 01:35:06;;;;;;;;;;;;;;;;;;5003102;28;1213;-68
2023/12/04 01:37:31;;;;;;;;;;;;;;;;;;5003203;28;1098;-67
2023/12/04 01:39:57;;;;;;;;;;;;;;;;;;5003267;28;1228;-67
2023/12/04 01:42:22;;;;;;;;;;;;;;;;;;5003473;28;1193;-67
2023/12/04 01:44:47;;;;;;;;;;;;;;;;;;5003156;28;1935;-68
2023/12/04 01:47:13;;;;;;;;;;;;;;;;;;5003164;28;1292;-67
2023/12/04 01:49:38;;;;;;;;;;;;;;;;;;5003192;28;1194;-68
2023/12/04 01:52:03;;;;;;;;;;;;;;;;;;5002889;28;1090;-67
2023/12/04 01:54:28;;;;;;;;;;;;;;;;;;5003166;28;1066;-68
2023/12/04 01:56:53;;;;;;;;;;;;;;;;;;5002770;28;1173;-68
2023/12/04 01:59:19;;;;;;;;;;;;;;;;;;5003221;28;1180;-67
2023/12/04 02:01:44;;;;;;;;;;;;;;;;;;5003073;28;1067;-67
2023/12/04 02:04:09;;;;;;;;;;;;;;;;;;5002681;28;1945;-67
2023/12/04 02:06:34;;;;;;;;;;;;;;;;;;5002888;28;1058;-67
2023/12/04 02:09:00;;;;;;;;;;;;;;;;;;5002904;28;1276;-68
2023/12/04 02:11:25;;;;;;;;;;;;;;;;;;5003218;28;1280;-68
2023/12/04 02:13:50;;;;;;;;;;;;;;;;;;5002762;28;1095;-68
2023/12/04 02:16:16;;;;;;;;;;;;;;;;;;5002739;28;1090;-67
2023/12/04 02:18:41;;;;;;;;;;;;;;;;;;5002672;28;1099;-68
2023/12/04 02:21:07;;;;;;;;;;;;;;;;;;5002392;28;1090;-68
2023/12/04 02:23:32;;;;;;;;;;;;;;;;;;5002878;28;1189;-68
2023/12/04 02:25:57;;;;;;;;;;;;;;;;;;5002584;28;1969;-68
2023/12/04 02:28:22;;;;;;;;;;;;;;;;;;5001601;28;1411;-67
2023/12/04 02:30:47;;;;;;;;;;;;;;;;;;5002644;28;1174;-68
2023/12/04 02:33:13;;;;;;;;;;;;;;;;;;5002624;28;1063;-67
2023/12/04 02:35:38;;;;;;;;;;;;;;;;;;5001941;28;1075;-68
2023/12/04 02:38:03;;;;;;;;;;;;;;;;;;5002733;28;1224;-68
2023/12/04 02:40:29;;;;;;;;;;;;;;;;;;5002765;28;1089;-68
2023/12/04 02:42:54;;;;;;;;;;;;;;;;;;5002542;28;1055;-67
2023/12/04 02:45:19;;;;;;;;;;;;;;;;;;5001902;28;1878;-68
2023/12/04 02:47:44;;;;;;;;;;;;;;;;;;5002276;28;1339;-69
2023/12/04 02:50:10;;;;;;;;;;;;;;;;;;5002268;28;1132;-68
2023/12/04 02:52:35;;;;;;;;;;;;;;;;;;5002463;28;1111;-67
2023/12/04 02:55:00;;;;;;;;;;;;;;;;;;5002226;28;1280;-68
2023/12/04 02:57:26;;;;;;;;;;;;;;;;;;5002231;28;1074;-67
2023/12/04 02:59:51;;;;;;;;;;;;;;;;;;5002066;28;1195;-68
2023/12/04 03:02:16;;;;;;;;;;;;;;;;;;5002266;28;1193;-67
2023/12/04 03:04:41;;;;;;;;;;;;;;;;;;5001301;28;1944;-68
2023/12/04 03:07:06;;;;;;;;;;;;;;;;;;5034933;28;1450;-67
2023/12/04 03:09:32;;;;;;;;;;;;;;;;;;5035135;28;1232;-67
2023/12/04 03:11:57;;;;;;;;;;;;;;;;;;5034870;28;1205;-69
2023/12/04 03:14:23;;;;;;;;;;;;;;;;;;5035044;28;1111;-68
2023/12/04 03:16:48;;;;;;;;;;;;;;;;;;5035157;28;1081;-67
2023/12/04 03:19:13;;;;;;;;;;;;;;;;;;5034900;28;1102;-69
2023/12/04 03:21:38;;;;;;;;;;;;;;;;;;5035061;28;1180;-69
2023/12/04 03:24:03;;;;;;;;;;;;;;;;;;5034715;28;1910;-69
2023/12/04 03:26:29;;;;;;;;;;;;;;;;;;5035027;28;1183;-68
2023/12/04 03:28:54;;;;;;;;;;;;;;;;;;5034203;28;1216;-68
2023/12/04 03:31:19;;;;;;;;;;;;;;;;;;5034203;28;1069;-68
2023/12/04 03:33:45;;;;;;;;;;;;;;;;;;5034896;28;1198;-67
2023/12/04 03:36:10;;;;;;;;;;;;;;;;;;5034727;28;1090;-67
2023/12/04 03:38:35;;;;;;;;;;;;;;;;;;5034807;28;1080;-67
2023/12/04 03:41:00;;;;;;;;;;;;;;;;;;5034016;28;1105;-69
2023/12/04 03:43:26;;;;;;;;;;;;;;;;;;5034544;28;1144;-68
2023/12/04 03:45:51;;;;;;;;;;;;;;;;;;5002382;28;1937;-69
2023/12/04 03:48:16;;;;;;;;;;;;;;;;;;5034461;28;1085;-68
2023/12/04 03:50:41;;;;;;;;;;;;;;;;;;5035025;28;1081;-69
2023/12/04 03:53:07;;;;;;;;;;;;;;;;;;5035521;28;1160;-68
2023/12/04 03:55:32;;;;;;;;;;;;;;;;;;5034791;28;1062;-67
2023/12/04 03:57:57;;;;;;;;;;;;;;;;;;5033568;28;1033;-68
2023/12/04 04:00:22;;;;;;;;;;;;;;;;;;5033832;28;1271;-68
2023/12/04 04:02:48;;;;;;;;;;;;;;;;;;5034253;28;1216;-67
2023/12/04 04:05:13;;;;;;;;;;;;;;;;;;5007761;28;1945;-68
2023/12/04 04:07:38;;;;;;;;;;;;;;;;;;5041782;28;1223;-67
2023/12/04 04:10:06;;;;;;;;;;;;;;;;;;5013359;28;1246;-68
2023/12/04 04:12:32;;;;;;;;;;;;;;;;;;5052099;28;1327;-68
2023/12/04 04:14:57;;;;;;;;;;;;;;;;;;5052531;28;1163;-67
2023/12/04 04:17:25;;;;;;;;;;;;;;;;;;5051962;28;1287;-67
2023/12/04 04:19:50;;;;;;;;;;;;;;;;;;5039845;28;1402;-68
2023/12/04 04:22:15;;;;;;;;;;;;;;;;;;5043174;28;1229;-68
2023/12/04 04:24:40;;;;;;;;;;;;;;;;;;5043081;28;1969;-68
2023/12/04 04:27:05;;;;;;;;;;;;;;;;;;5049830;28;1211;-65
2023/12/04 04:29:31;;;;;;;;;;;;;;;;;;5010507;28;1264;-65
2023/12/04 04:31:56;;;;;;;;;;;;;;;;;;5040675;28;1250;-65
2023/12/04 04:34:21;;;;;;;;;;;;;;;;;;5042650;28;1287;-65
2023/12/04 04:36:46;;;;;;;;;;;;;;;;;;5044392;28;1380;-68
2023/12/04 04:39:11;;;;;;;;;;;;;;;;;;5008608;28;1295;-68
2023/12/04 04:41:37;;;;;;;;;;;;;;;;;;5013125;28;1291;-67
2023/12/04 04:44:02;;;;;;;;;;;;;;;;;;5041922;28;1953;-68
2023/12/04 04:46:28;;;;;;;;;;;;;;;;;;5044054;28;1313;-67
2023/12/04 04:48:53;;;;;;;;;;;;;;;;;;5010010;28;1220;-68
2023/12/04 04:51:18;;;;;;;;;;;;;;;;;;5042526;28;1314;-69
2023/12/04 04:53:43;;;;;;;;;;;;;;;;;;5020310;28;1321;-67
2023/12/04 04:56:08;;;;;;;;;;;;;;;;;;5044723;28;1206;-68
2023/12/04 04:58:34;;;;;;;;;;;;;;;;;;5012618;28;1217;-69
2023/12/04 05:00:59;;;;;;;;;;;;;;;;;;5045881;28;1219;-68
2023/12/04 05:03:24;;;;;;;;;;;;;;;;;;5013890;28;1255;-68
2023/12/04 05:05:49;;;;;;;;;;;;;;;;;;5044904;28;1878;-68
2023/12/04 05:08:14;;;;;;;;;;;;;;;;;;5045403;28;1251;-68
2023/12/04 05:10:39;;;;;;;;;;;;;;;;;;5043589;28;1215;-69
2023/12/04 05:13:05;;;;;;;;;;;;;;;;;;5013909;28;1283;-67
2023/12/04 05:15:30;;;;;;;;;;;;;;;;;;5014972;28;1212;-68
2023/12/04 05:17:55;;;;;;;;;;;;;;;;;;5046394;28;1319;-68
2023/12/04 05:20:20;;;;;;;;;;;;;;;;;;5015383;28;1259;-67
2023/12/04 05:22:45;;;;;;;;;;;;;;;;;;5011506;28;1224;-69
2023/12/04 05:25:10;;;;;;;;;;;;;;;;;;5013734;28;1918;-69
2023/12/04 05:27:36;;;;;;;;;;;;;;;;;;5012771;28;1268;-69
2023/12/04 05:30:01;;;;;;;;;;;;;;;;;;5045566;28;1258;-70
2023/12/04 05:32:26;;;;;;;;;;;;;;;;;;5013785;28;1445;-70
2023/12/04 05:34:51;;;;;;;;;;;;;;;;;;5013523;28;1216;-70
2023/12/04 05:37:16;;;;;;;;;;;;;;;;;;5012363;28;1216;-69
2023/12/04 05:39:41;;;;;;;;;;;;;;;;;;5045478;28;1223;-69
2023/12/04 05:42:07;;;;;;;;;;;;;;;;;;5013702;28;1201;-72
2023/12/04 05:44:32;;;;;;;;;;;;;;;;;;5014022;28;1890;-70
2023/12/04 05:46:57;;;;;;;;;;;;;;;;;;5046399;28;1211;-70
2023/12/04 05:49:22;;;;;;;;;;;;;;;;;;5010813;28;1244;-71
2023/12/04 05:51:48;;;;;;;;;;;;;;;;;;5013560;28;1240;-70
2023/12/04 05:54:13;;;;;;;;;;;;;;;;;;5011275;28;1275;-70
2023/12/04 05:56:38;;;;;;;;;;;;;;;;;;5044255;28;1379;-70
2023/12/04 05:59:04;;;;;;;;;;;;;;;;;;5045443;28;1271;-69
2023/12/04 06:01:29;;;;;;;;;;;;;;;;;;5013416;28;1283;-70
2023/12/04 06:03:54;;;;;;;;;;;;;;;;;;5044377;28;1247;-70
2023/12/04 06:06:19;;;;;;;;;;;;;;;;;;5044376;28;1937;-70
2023/12/04 06:08:44;;;;;;;;;;;;;;;;;;5052815;28;1405;-70
2023/12/04 06:11:10;;;;;;;;;;;;;;;;;;5056273;28;1345;-70
2023/12/04 06:13:35;;;;;;;;;;;;;;;;;;5055351;28;1202;-69
2023/12/04 06:16:00;;;;;;;;;;;;;;;;;;5055380;28;1286;-69
2023/12/04 06:18:25;;;;;;;;;;;;;;;;;;5055301;28;1193;-70
2023/12/04 06:20:51;;;;;;;;;;;;;;;;;;5055522;28;1185;-70
2023/12/04 06:23:17;;;;;;;;;;;;;;;;;;5055692;28;1357;-70
2023/12/04 06:25:43;;;;;;;;;;;;;;;;;;5055246;28;1933;-70
2023/12/04 06:28:08;;;;;;;;;;;;;;;;;;5055166;28;1289;-69
2023/12/04 06:30:33;;;;;;;;;;;;;;;;;;5055168;28;1235;-70
2023/12/04 06:32:59;;;;;;;;;;;;;;;;;;5055636;28;1302;-69
2023/12/04 06:35:24;;;;;;;;;;;;;;;;;;5054947;28;1221;-69
2023/12/04 06:37:50;;;;;;;;;;;;;;;;;;5055586;28;1265;-70
2023/12/04 06:40:15;;;;;;;;;;;;;;;;;;5054975;28;1299;-70
2023/12/04 06:42:40;;;;;;;;;;;;;;;;;;5055032;28;1213;-70
2023/12/04 06:45:05;;;;;;;;;;;;;;;;;;5054938;28;1941;-70
2023/12/04 06:47:31;;;;;;;;;;;;;;;;;;5055178;28;1089;-70
2023/12/04 06:49:56;;;;;;;;;;;;;;;;;;5054915;28;1187;-69
2023/12/04 06:52:21;;;;;;;;;;;;;;;;;;5055116;28;1294;-70
2023/12/04 06:54:47;;;;;;;;;;;;;;;;;;5055080;28;1234;-70
2023/12/04 06:57:14;;;;;;;;;;;;;;;;;;5055398;28;1328;-70
2023/12/04 06:59:39;;;;;;;;;;;;;;;;;;5054621;28;1242;-70
2023/12/04 07:02:05;;;;;;;;;;;;;;;;;;5054976;28;1143;-70
2023/12/04 07:04:30;;;;;;;;;;;;;;;;;;5054390;28;1878;-70
2023/12/04 07:06:57;;;;;;;;;;;;;;;;;;5054659;28;1396;-70
2023/12/04 07:09:23;;;;;;;;;;;;;;;;;;5054499;28;1204;-69
2023/12/04 07:11:48;;;;;;;;;;;;;;;;;;5054905;28;1195;-69
2023/12/04 07:14:14;;;;;;;;;;;;;;;;;;5054350;28;1251;-71
2023/12/04 07:16:40;;;;;;;;;;;;;;;;;;5054226;28;1306;-70
2023/12/04 07:19:05;;;;;;;;;;;;;;;;;;5054655;28;1125;-70
2023/12/04 07:21:30;;;;;;;;;;;;;;;;;;5054557;28;1196;-69
2023/12/04 07:23:55;;;;;;;;;;;;;;;;;;5054385;28;1227;-70
2023/12/04 07:26:21;;;;;;;;;;;;;;;;;;5054550;28;1971;-70
2023/12/04 07:28:46;;;;;;;;;;;;;;;;;;5054311;28;1374;-70
2023/12/04 07:31:11;;;;;;;;;;;;;;;;;;5054581;28;1213;-69
2023/12/04 07:33:37;;;;;;;;;;;;;;;;;;5054419;28;1189;-70
2023/12/04 07:36:02;;;;;;;;;;;;;;;;;;5054137;28;1432;-70
2023/12/04 07:38:27;;;;;;;;;;;;;;;;;;5054302;28;1292;-70
2023/12/04 07:40:53;;;;;;;;;;;;;;;;;;5053931;28;1165;-70
2023/12/04 07:43:19;;;;;;;;;;;;;;;;;;5054317;28;1337;-70
2023/12/04 07:45:44;;;;;;;;;;;;;;;;;;5054010;28;1935;-69
2023/12/04 07:48:09;;;;;;;;;;;;;;;;;;5053679;28;1200;-69
2023/12/04 07:50:35;;;;;;;;;;;;;;;;;;5053638;28;1218;-70
2023/12/04 07:53:00;;;;;;;;;;;;;;;;;;5046184;28;1138;-70
2023/12/04 07:55:25;;;;;;;;;;;;;;;;;;5032950;28;1196;-70
2023/12/04 07:57:50;;;;;;;;;;;;;;;;;;5034212;28;1129;-71
2023/12/04 08:00:17;;;;;;;;;;;;;;;;;;5033172;28;1200;-71
2023/12/04 08:02:44;;;;;;;;;;;;;;;;;;5033811;28;1177;-71
2023/12/04 08:05:10;;;;;;;;;;;;;;;;;;5033887;28;1940;-69
2023/12/04 08:07:35;;;;;;;;;;;;;;;;;;5033853;28;1144;-70
2023/12/04 08:10:00;;;;;;;;;;;;;;;;;;5033928;28;1386;-70
2023/12/04 08:12:25;;;;;;;;;;;;;;;;;;5033795;28;1250;-70
2023/12/04 08:14:51;;;;;;;;;;;;;;;;;;5033939;28;1299;-70
2023/12/04 08:17:16;;;;;;;;;;;;;;;;;;5034029;28;1206;-70
2023/12/04 08:19:41;;;;;;;;;;;;;;;;;;5033782;28;1312;-70
2023/12/04 08:22:07;;;;;;;;;;;;;;;;;;5033515;28;1145;-71
2023/12/04 08:24:32;;;;;;;;;;;;;;;;;;5033526;28;1902;-71
2023/12/04 08:26:57;;;;;;;;;;;;;;;;;;5034510;28;1363;-69
2023/12/04 08:29:22;;;;;;;;;;;;;;;;;;5037043;28;1315;-70
2023/12/04 08:31:47;;;;;;;;;;;;;;;;;;5036983;28;1283;-70
2023/12/04 08:34:12;;;;;;;;;;;;;;;;;;5037212;28;1322;-71
2023/12/04 08:36:38;;;;;;;;;;;;;;;;;;5036998;28;1223;-70
2023/12/04 08:39:03;;;;;;;;;;;;;;;;;;5035353;28;1252;-68
2023/12/04 08:41:29;;;;;;;;;;;;;;;;;;5034770;28;1195;-68
2023/12/04 08:43:54;;;;;;;;;;;;;;;;;;5035554;28;1295;-68
2023/12/04 08:46:20;;;;;;;;;;;;;;;;;;5036689;28;1883;-68
2023/12/04 08:48:45;;;;;;;;;;;;;;;;;;5036532;28;1364;-70
2023/12/04 08:51:10;;;;;;;;;;;;;;;;;;5033392;28;1187;-70
2023/12/04 08:53:36;;;;;;;;;;;;;;;;;;5036030;28;1191;-70
2023/12/04 08:56:02;;;;;;;;;;;;;;;;;;5035250;28;1254;-70
2023/12/04 08:58:28;;;;;;;;;;;;;;;;;;5034829;28;1207;-71
2023/12/04 09:00:53;;;;;;;;;;;;;;;;;;5034474;28;1225;-70
2023/12/04 09:03:20;;;;;;;;;;;;;;;;;;5035412;28;1098;-70
2023/12/04 09:05:45;;;;;;;;;;;;;;;;;;5036778;28;1874;-70
2023/12/04 09:08:11;;;;;;;;;;;;;;;;;;5035655;28;1168;-70
2023/12/04 09:10:36;;;;;;;;;;;;;;;;;;5034612;28;1299;-70
2023/12/04 09:13:01;;;;;;;;;;;;;;;;;;5035021;28;1156;-70
2023/12/04 09:15:26;;;;;;;;;;;;;;;;;;5035559;28;1117;-70
2023/12/04 09:17:51;;;;;;;;;;;;;;;;;;5035780;28;1228;-69
2023/12/04 09:20:16;;;;;;;;;;;;;;;;;;5033843;28;1168;-69
2023/12/04 09:22:42;;;;;;;;;;;;;;;;;;5035896;28;1097;-70
2023/12/04 09:25:08;;;;;;;;;;;;;;;;;;5036571;28;1898;-70
2023/12/04 09:27:33;;;;;;;;;;;;;;;;;;5035956;28;1192;-69
2023/12/04 09:29:59;;;;;;;;;;;;;;;;;;5036482;28;1401;-70
2023/12/04 09:32:24;;;;;;;;;;;;;;;;;;5036392;28;1097;-69
2023/12/04 09:34:49;;;;;;;;;;;;;;;;;;5034858;28;1443;-70
2023/12/04 09:37:14;;;;;;;;;;;;;;;;;;5036164;28;1299;-69
2023/12/04 09:39:40;;;;;;;;;;;;;;;;;;5036936;28;1293;-69
2023/12/04 09:42:05;;;;;;;;;;;;;;;;;;5037035;28;1330;-70
2023/12/04 09:44:30;;;;;;;;;;;;;;;;;;5035861;28;1859;-69
2023/12/04 09:46:55;;;;;;;;;;;;;;;;;;5035626;28;1256;-69
2023/12/04 09:49:20;;;;;;;;;;;;;;;;;;5035732;28;1228;-69
2023/12/04 09:51:45;;;;;;;;;;;;;;;;;;5035862;28;1307;-69
2023/12/04 09:54:11;;;;;;;;;;;;;;;;;;5035631;28;1093;-70
2023/12/04 09:56:36;;;;;;;;;;;;;;;;;;5035977;28;1283;-69
2023/12/04 09:59:02;;;;;;;;;;;;;;;;;;5035660;28;1273;-70
2023/12/04 10:01:27;;;;;;;;;;;;;;;;;;5035822;28;1506;-70
2023/12/04 10:03:52;;;;;;;;;;;;;;;;;;5035592;28;1148;-70
2023/12/04 10:06:18;;;;;;;;;;;;;;;;;;5035393;28;1878;-70
2023/12/04 10:08:44;;;;;;;;;;;;;;;;;;5035742;28;1235;-70
2023/12/04 10:11:09;;;;;;;;;;;;;;;;;;5035388;28;1241;-70
2023/12/04 10:13:35;;;;;;;;;;;;;;;;;;5035240;28;1239;-70
2023/12/04 10:16:00;;;;;;;;;;;;;;;;;;5035430;28;1077;-69
2023/12/04 10:18:26;;;;;;;;;;;;;;;;;;5035600;28;1283;-70
2023/12/04 10:20:51;;;;;;;;;;;;;;;;;;5035252;28;1318;-69
2023/12/04 10:23:17;;;;;;;;;;;;;;;;;;5035536;28;1058;-69
2023/12/04 10:25:42;;;;;;;;;;;;;;;;;;5035452;28;1906;-70
2023/12/04 10:28:08;;;;;;;;;;;;;;;;;;5035208;28;1318;-70
2023/12/04 10:30:33;;;;;;;;;;;;;;;;;;5035269;28;1133;-69
2023/12/04 10:33:00;;;;;;;;;;;;;;;;;;5035207;28;1248;-70
2023/12/04 10:35:25;;;;;;;;;;;;;;;;;;5035559;28;1340;-70
2023/12/04 10:37:50;;;;;;;;;;;;;;;;;;5035106;28;1269;-70
2023/12/04 10:40:16;;;;;;;;;;;;;;;;;;5035545;28;1295;-70
2023/12/04 10:42:41;;;;;;;;;;;;;;;;;;5035343;28;1318;-69
2023/12/04 10:45:06;;;;;;;;;;;;;;;;;;5034812;28;1937;-69
2023/12/04 10:47:32;;;;;;;;;;;;;;;;;;5035576;28;1291;-69
2023/12/04 10:49:57;;;;;;;;;;;;;;;;;;5034186;28;1448;-69
2023/12/04 10:52:23;;;;;;;;;;;;;;;;;;5034743;28;1475;-69
2023/12/04 10:54:48;;;;;;;;;;;;;;;;;;5034817;28;1458;-69
2023/12/04 10:57:14;;;;;;;;;;;;;;;;;;5034781;28;1078;-68
2023/12/04 10:59:39;;;;;;;;;;;;;;;;;;5034523;28;1200;-68
2023/12/04 11:02:04;;;;;;;;;;;;;;;;;;5034771;28;1196;-69
2023/12/04 11:04:29;;;;;;;;;;;;;;;;;;5035059;28;1871;-69
2023/12/04 11:06:55;;;;;;;;;;;;;;;;;;5034659;28;1284;-69
2023/12/04 11:09:20;;;;;;;;;;;;;;;;;;5034355;28;1290;-68
2023/12/04 11:11:45;;;;;;;;;;;;;;;;;;5034472;28;1299;-68
2023/12/04 11:14:11;;;;;;;;;;;;;;;;;;5034747;28;1240;-68
2023/12/04 11:16:36;;;;;;;;;;;;;;;;;;5034863;28;1180;-69
2023/12/04 11:19:02;;;;;;;;;;;;;;;;;;5034966;28;1092;-70
2023/12/04 11:21:27;;;;;;;;;;;;;;;;;;5034508;28;1291;-69
2023/12/04 11:23:52;;;;;;;;;;;;;;;;;;5034452;28;1203;-68
2023/12/04 11:26:18;;;;;;;;;;;;;;;;;;5034188;28;1910;-68
2023/12/04 11:28:43;;;;;;;;;;;;;;;;;;5034681;28;1343;-68
2023/12/04 11:31:08;;;;;;;;;;;;;;;;;;5034462;28;1264;-69
2023/12/04 11:33:34;;;;;;;;;;;;;;;;;;5034374;28;1394;-69
2023/12/04 11:36:00;;;;;;;;;;;;;;;;;;5034197;28;1269;-69
2023/12/04 11:38:25;;;;;;;;;;;;;;;;;;5034160;28;1105;-69
2023/12/04 11:40:51;;;;;;;;;;;;;;;;;;5034133;28;1119;-69
2023/12/04 11:43:16;;;;;;;;;;;;;;;;;;5034484;28;1046;-69
2023/12/04 11:45:41;;;;;;;;;;;;;;;;;;5034351;28;1882;-69
2023/12/04 11:48:06;;;;;;;;;;;;;;;;;;5033953;28;1245;-69
2023/12/04 11:50:31;;;;;;;;;;;;;;;;;;5034244;28;1399;-69
2023/12/04 11:52:56;;;;;;;;;;;;;;;;;;5033944;28;1192;-69
2023/12/04 11:55:22;;;;;;;;;;;;;;;;;;5034026;28;1184;-69
2023/12/04 11:57:47;;;;;;;;;;;;;;;;;;5034383;28;1303;-69
2023/12/04 12:00:14;;;;;;;;;;;;;;;;;;5034025;28;1222;-69
2023/12/04 12:02:40;;;;;;;;;;;;;;;;;;5036971;28;1278;-69
2023/12/04 12:05:05;;;;;;;;;;;;;;;;;;5037294;28;1951;-61
2023/12/04 12:07:30;;;;;;;;;;;;;;;;;;5037449;28;1093;-60
2023/12/04 12:09:55;;;;;;;;;;;;;;;;;;5037382;28;1194;-60
2023/12/04 12:12:21;;;;;;;;;;;;;;;;;;5037123;28;1322;-61
2023/12/04 12:14:46;;;;;;;;;;;;;;;;;;5037302;28;1201;-60
2023/12/04 12:17:13;;;;;;;;;;;;;;;;;;5037498;28;1310;-61
2023/12/04 12:19:39;;;;;;;;;;;;;;;;;;5037083;28;1173;-61
2023/12/04 12:22:04;;;;;;;;;;;;;;;;;;5037809;28;1215;-60
2023/12/04 12:24:29;;;;;;;;;;;;;;;;;;5037245;28;1902;-61
2023/12/04 12:26:55;;;;;;;;;;;;;;;;;;5037333;28;1205;-61
2023/12/04 12:29:20;;;;;;;;;;;;;;;;;;5036857;28;1367;-61
2023/12/04 12:31:46;;;;;;;;;;;;;;;;;;5037022;28;1144;-61
2023/12/04 12:34:11;;;;;;;;;;;;;;;;;;5036497;28;1306;-61
2023/12/04 12:36:36;;;;;;;;;;;;;;;;;;5011742;28;1327;-61
2023/12/04 12:39:03;;;;;;;;;;;;;;;;;;5014445;28;1268;-61
2023/12/04 12:41:29;;;;;;;;;;;;;;;;;;5006417;28;1232;-60
2023/12/04 12:43:54;;;;;;;;;;;;;;;;;;5003993;28;1200;-61
2023/12/04 12:46:19;;;;;;;;;;;;;;;;;;5004560;28;1907;-61
2023/12/04 12:48:45;;;;;;;;;;;;;;;;;;5003838;28;1216;-61
2023/12/04 12:51:11;;;;;;;;;;;;;;;;;;5003896;28;1189;-60
2023/12/04 12:53:36;;;;;;;;;;;;;;;;;;5003787;28;1196;-60
2023/12/04 12:56:02;;;;;;;;;;;;;;;;;;5003835;28;1206;-61
2023/12/04 12:58:27;;;;;;;;;;;;;;;;;;5003821;28;1098;-61
2023/12/04 13:00:55;;;;;;;;;;;;;;;;;;5003006;28;1333;-62
2023/12/04 13:03:20;;;;;;;;;;;;;;;;;;5003482;28;1412;-61
2023/12/04 13:05:46;;;;;;;;;;;;;;;;;;5011612;28;1890;-61
2023/12/04 13:08:11;;;;;;;;;;;;;;;;;;5045403;28;1203;-62
2023/12/04 13:10:36;;;;;;;;;;;;;;;;;;5011510;28;1284;-60
2023/12/04 13:13:02;;;;;;;;;;;;;;;;;;5002656;28;1264;-59
2023/12/04 13:15:27;;;;;;;;;;;;;;;;;;5003685;28;1196;-60
2023/12/04 13:17:53;;;;;;;;;;;;;;;;;;5003603;28;1259;-61
2023/12/04 13:20:18;;;;;;;;;;;;;;;;;;5003779;28;1247;-59
2023/12/04 13:22:44;;;;;;;;;;;;;;;;;;5003699;28;1082;-60
2023/12/04 13:25:09;;;;;;;;;;;;;;;;;;5003343;28;1981;-61
2023/12/04 13:27:36;;;;;;;;;;;;;;;;;;5003613;28;1126;-61
2023/12/04 13:30:01;;;;;;;;;;;;;;;;;;5003599;28;1307;-61
2023/12/04 13:32:27;;;;;;;;;;;;;;;;;;5003436;28;1219;-62
2023/12/04 13:34:54;;;;;;;;;;;;;;;;;;5003737;28;1201;-60
2023/12/04 13:37:20;;;;;;;;;;;;;;;;;;5003207;28;1122;-62
2023/12/04 13:39:50;;;;;;;;;;;;;;;;;;5003221;28;1636;-59
2023/12/04 13:45:00;;;;;;;;;;;;;;;;;;5004148;28;1894;-61
2023/12/04 13:47:26;;;;;;;;;;;;;;;;;;5003580;28;1237;-61
2023/12/04 13:49:51;;;;;;;;;;;;;;;;;;5002778;28;1114;-60
2023/12/04 13:52:20;;;;;;;;;;;;;;;;;;5002769;28;1178;-62
2023/12/04 13:54:47;;;;;;;;;;;;;;;;;;5005117;28;1457;-61
2023/12/04 13:57:21;;;;;;;;;;;;;;;;;;5002802;28;1316;-60
2023/12/04 13:59:46;;;;;;;;;;;;;;;;;;5003391;28;1173;-59
2023/12/04 14:02:12;;;;;;;;;;;;;;;;;;5003005;28;1312;-60
2023/12/04 14:04:38;;;;;;;;;;;;;;;;;;5002906;28;1936;-61
2023/12/04 14:07:04;;;;;;;;;;;;;;;;;;5002646;28;1272;-62
2023/12/04 14:09:29;;;;;;;;;;;;;;;;;;5002499;28;1165;-59
2023/12/04 14:11:55;;;;;;;;;;;;;;;;;;5002738;28;1082;-60
2023/12/04 14:14:20;;;;;;;;;;;;;;;;;;5002629;28;1214;-61
2023/12/04 14:16:46;;;;;;;;;;;;;;;;;;5002701;28;1215;-62
2023/12/04 14:19:12;;;;;;;;;;;;;;;;;;5002527;28;1110;-61
2023/12/04 14:21:38;;;;;;;;;;;;;;;;;;5002519;28;1256;-61
2023/12/04 14:24:03;;;;;;;;;;;;;;;;;;5001594;28;1180;-61
2023/12/04 14:26:28;;;;;;;;;;;;;;;;;;5001839;28;1973;-61
2023/12/04 14:28:54;;;;;;;;;;;;;;;;;;5002322;28;1239;-62
2023/12/04 14:31:20;;;;;;;;;;;;;;;;;;5002644;28;1292;-61
2023/12/04 14:33:46;;;;;;;;;;;;;;;;;;5002487;28;1425;-61
2023/12/04 14:36:14;;;;;;;;;;;;;;;;;;5002743;28;1093;-61
2023/12/04 14:38:39;;;;;;;;;;;;;;;;;;5002556;28;1398;-61
2023/12/04 14:41:06;;;;;;;;;;;;;;;;;;5002086;28;1222;-61
2023/12/04 14:43:31;;;;;;;;;;;;;;;;;;5002068;28;1226;-61
2023/12/04 14:45:57;;;;;;;;;;;;;;;;;;5002123;28;1867;-61
2023/12/04 14:48:22;;;;;;;;;;;;;;;;;;5001857;28;1283;-61
2023/12/04 14:50:47;;;;;;;;;;;;;;;;;;5001482;28;1196;-61
2023/12/04 14:53:29;;;;;;;;;;;;;;;;;;5001200;28;1295;-60
2023/12/04 15:07:21;;;;;;;;;;;;;;;;;;4992394;28;1887;-61
2023/12/04 15:14:49;;;;;;;;;;;;;;;;;;5002537;28;632;-61
2023/12/04 15:17:29;;;;;;;;;;;;;;;;;;5001791;28;1418;-62
2023/12/04 15:22:35;;;;;;;;;;;;;;;;;;5002770;28;707;-61
2023/12/04 15:25:00;;;;;;;;;;;;;;;;;;5001776;28;1966;-62
2023/12/04 15:27:25;;;;;;;;;;;;;;;;;;5001311;28;1237;-61
2023/12/04 15:29:51;;;;;;;;;;;;;;;;;;5034672;28;1272;-61
2023/12/04 15:32:16;;;;;;;;;;;;;;;;;;5034598;28;1081;-61
2023/12/04 15:34:41;;;;;;;;;;;;;;;;;;5034283;28;1287;-61
2023/12/04 15:37:06;;;;;;;;;;;;;;;;;;5033947;28;1521;-61
2023/12/04 15:39:31;;;;;;;;;;;;;;;;;;5034758;28;1303;-61
2023/12/04 15:41:56;;;;;;;;;;;;;;;;;;5034275;28;1422;-61
2023/12/04 15:44:22;;;;;;;;;;;;;;;;;;5034308;28;1144;-61
2023/12/04 15:46:48;;;;;;;;;;;;;;;;;;5033799;28;1993;-58
2023/12/04 15:49:13;;;;;;;;;;;;;;;;;;5034158;28;1382;-60
2023/12/04 15:51:39;;;;;;;;;;;;;;;;;;5034038;28;1366;-58
2023/12/04 15:54:04;;;;;;;;;;;;;;;;;;5033908;28;1334;-58
2023/12/04 15:56:29;;;;;;;;;;;;;;;;;;5034153;28;1302;-58
2023/12/04 15:58:54;;;;;;;;;;;;;;;;;;5033917;28;1261;-58
2023/12/04 16:01:19;;;;;;;;;;;;;;;;;;5034019;28;1278;-58
2023/12/04 16:03:45;;;;;;;;;;;;;;;;;;5033949;28;1291;-60
2023/12/04 16:06:11;;;;;;;;;;;;;;;;;;5033754;28;1967;-55
2023/12/04 16:08:36;;;;;;;;;;;;;;;;;;5033942;28;1650;-57
2023/12/04 16:11:02;;;;;;;;;;;;;;;;;;5034071;28;1326;-56
2023/12/04 16:13:28;;;;;;;;;;;;;;;;;;5033417;28;1197;-57
2023/12/04 16:15:53;;;;;;;;;;;;;;;;;;5034052;28;1273;-57
2023/12/04 16:18:18;;;;;;;;;;;;;;;;;;5034122;28;1363;-56
2023/12/04 16:20:46;;;;;;;;;;;;;;;;;;5033637;28;1331;-54
2023/12/04 16:23:12;;;;;;;;;;;;;;;;;;5033693;28;1371;-59
2023/12/04 16:25:37;;;;;;;;;;;;;;;;;;5033910;28;2015;-58
2023/12/04 16:28:03;;;;;;;;;;;;;;;;;;5033922;28;1077;-57
2023/12/04 16:30:29;;;;;;;;;;;;;;;;;;5033999;28;1089;-58
2023/12/04 16:32:55;;;;;;;;;;;;;;;;;;5033724;28;1214;-59
2023/12/04 16:35:20;;;;;;;;;;;;;;;;;;5039548;28;1284;-58
2023/12/04 16:37:45;;;;;;;;;;;;;;;;;;5045458;28;1282;-57
2023/12/04 16:40:10;;;;;;;;;;;;;;;;;;5000697;28;1201;-57
2023/12/04 16:42:35;;;;;;;;;;;;;;;;;;5000738;28;1297;-57
2023/12/04 16:45:01;;;;;;;;;;;;;;;;;;5000731;28;1935;-57
2023/12/04 16:47:26;;;;;;;;;;;;;;;;;;5000553;28;1376;-56
2023/12/04 16:49:51;;;;;;;;;;;;;;;;;;5003921;28;1257;-58
2023/12/04 16:52:16;;;;;;;;;;;;;;;;;;5003718;28;1224;-59
2023/12/04 16:54:42;;;;;;;;;;;;;;;;;;5003818;28;1153;-55
2023/12/04 16:57:07;;;;;;;;;;;;;;;;;;5003979;28;1232;-57
2023/12/04 16:59:33;;;;;;;;;;;;;;;;;;5004132;28;1192;-59
2023/12/04 17:01:58;;;;;;;;;;;;;;;;;;5003448;28;1318;-57
2023/12/04 17:04:23;;;;;;;;;;;;;;;;;;5003787;28;1231;-58
2023/12/04 17:06:49;;;;;;;;;;;;;;;;;;5003810;28;1957;-59
2023/12/04 17:09:14;;;;;;;;;;;;;;;;;;5003699;28;1094;-58
2023/12/04 17:11:40;;;;;;;;;;;;;;;;;;5003410;28;1109;-57